sensor_id;sensor_type;location;lat;lon;timestamp;P1;durP1;ratioP1;P2;durP2;ratioP2
20557;SDS011;10437;48.156;11.530;2024-03-06T00:02:10;22.57;;;11.73;;
20557;SDS011;10437;48.156;11.530;2024-03-06T00:04:37;24.63;;;12.57;;
20557;SDS011;10437;48.156;11.530;2024-03-06T00:07:05;23.50;;;11.80;;
20557;SDS011;10437;48.156;11.530;2024-03-06T00:09:33;24.20;;;12.30;;
20557;SDS011;10437;48.156;11.530;2024-03-06T00:12:01;24.67;;;12.33;;
20557;SDS011;10437;48.156;11.530;2024-03-06T00:14:29;25.50;;;12.67;;
20557;SDS011;10437;48.156;11.530;2024-03-06T00:16:56;26.60;;;13.03;;
20557;SDS011;10437;48.156;11.530;2024-03-06T00:19:23;25.63;;;12.63;;
20557;SDS011;10437;48.156;11.530;2024-03-06T00:21:51;24.20;;;13.07;;
20557;SDS011;10437;48.156;11.530;2024-03-06T00:24:18;25.53;;;12.67;;
20557;SDS011;10437;48.156;11.530;2024-03-06T00:26:47;23.77;;;12.27;;
20557;SDS011;10437;48.156;11.530;2024-03-06T00:29:14;26.60;;;13.07;;
20557;SDS011;10437;48.156;11.530;2024-03-06T00:31:42;22.80;;;12.33;;
20557;SDS011;10437;48.156;11.530;2024-03-06T00:34:09;20.53;;;11.70;;
20557;SDS011;10437;48.156;11.530;2024-03-06T00:36:39;21.93;;;11.53;;
20557;SDS011;10437;48.156;11.530;2024-03-06T00:39:06;23.77;;;12.17;;
20557;SDS011;10437;48.156;11.530;2024-03-06T00:41:34;24.87;;;12.97;;
20557;SDS011;10437;48.156;11.530;2024-03-06T00:44:03;25.47;;;13.10;;
20557;SDS011;10437;48.156;11.530;2024-03-06T00:46:30;22.70;;;12.73;;
20557;SDS011;10437;48.156;11.530;2024-03-06T00:48:58;21.47;;;11.70;;
20557;SDS011;10437;48.156;11.530;2024-03-06T00:51:25;27.37;;;13.00;;
20557;SDS011;10437;48.156;11.530;2024-03-06T00:53:52;28.37;;;13.00;;
20557;SDS011;10437;48.156;11.530;2024-03-06T00:56:19;23.37;;;12.77;;
20557;SDS011;10437;48.156;11.530;2024-03-06T00:58:47;23.07;;;12.43;;
20557;SDS011;10437;48.156;11.530;2024-03-06T01:01:16;27.10;;;12.30;;
20557;SDS011;10437;48.156;11.530;2024-03-06T01:03:43;21.87;;;12.20;;
20557;SDS011;10437;48.156;11.530;2024-03-06T01:06:11;25.87;;;12.40;;
20557;SDS011;10437;48.156;11.530;2024-03-06T01:08:38;22.13;;;12.47;;
20557;SDS011;10437;48.156;11.530;2024-03-06T01:11:06;25.47;;;12.87;;
20557;SDS011;10437;48.156;11.530;2024-03-06T01:13:33;21.87;;;11.37;;
20557;SDS011;10437;48.156;11.530;2024-03-06T01:16:00;22.27;;;12.07;;
20557;SDS011;10437;48.156;11.530;2024-03-06T01:18:29;23.27;;;12.93;;
20557;SDS011;10437;48.156;11.530;2024-03-06T01:20:56;21.97;;;12.13;;
20557;SDS011;10437;48.156;11.530;2024-03-06T01:23:23;23.00;;;12.53;;
20557;SDS011;10437;48.156;11.530;2024-03-06T01:25:50;22.73;;;11.73;;
20557;SDS011;10437;48.156;11.530;2024-03-06T01:28:18;21.37;;;12.23;;
20557;SDS011;10437;48.156;11.530;2024-03-06T01:30:45;23.20;;;12.43;;
20557;SDS011;10437;48.156;11.530;2024-03-06T01:33:12;22.97;;;11.50;;
20557;SDS011;10437;48.156;11.530;2024-03-06T01:35:41;19.87;;;11.17;;
20557;SDS011;10437;48.156;11.530;2024-03-06T01:38:08;22.13;;;12.00;;
20557;SDS011;10437;48.156;11.530;2024-03-06T01:40:35;22.67;;;12.30;;
20557;SDS011;10437;48.156;11.530;2024-03-06T01:43:02;24.60;;;12.90;;
20557;SDS011;10437;48.156;11.530;2024-03-06T01:45:30;21.63;;;12.40;;
20557;SDS011;10437;48.156;11.530;2024-03-06T01:47:57;23.33;;;12.53;;
20557;SDS011;10437;48.156;11.530;2024-03-06T01:50:25;23.60;;;12.53;;
20557;SDS011;10437;48.156;11.530;2024-03-06T01:52:53;25.00;;;13.27;;
20557;SDS011;10437;48.156;11.530;2024-03-06T01:55:21;21.73;;;12.43;;
20557;SDS011;10437;48.156;11.530;2024-03-06T01:57:48;25.13;;;13.07;;
20557;SDS011;10437;48.156;11.530;2024-03-06T02:00:15;28.47;;;13.03;;
20557;SDS011;10437;48.156;11.530;2024-03-06T02:02:42;27.33;;;13.43;;
20557;SDS011;10437;48.156;11.530;2024-03-06T02:05:10;26.60;;;13.70;;
20557;SDS011;10437;48.156;11.530;2024-03-06T02:07:38;26.43;;;13.47;;
20557;SDS011;10437;48.156;11.530;2024-03-06T02:10:08;28.87;;;14.07;;
20557;SDS011;10437;48.156;11.530;2024-03-06T02:12:37;27.50;;;13.93;;
20557;SDS011;10437;48.156;11.530;2024-03-06T02:15:05;30.00;;;14.97;;
20557;SDS011;10437;48.156;11.530;2024-03-06T02:17:32;28.60;;;14.23;;
20557;SDS011;10437;48.156;11.530;2024-03-06T02:19:59;27.97;;;13.53;;
20557;SDS011;10437;48.156;11.530;2024-03-06T02:22:32;29.40;;;13.70;;
20557;SDS011;10437;48.156;11.530;2024-03-06T02:24:59;30.00;;;14.07;;
20557;SDS011;10437;48.156;11.530;2024-03-06T02:27:28;33.80;;;15.20;;
20557;SDS011;10437;48.156;11.530;2024-03-06T02:29:56;28.43;;;14.63;;
20557;SDS011;10437;48.156;11.530;2024-03-06T02:32:23;27.93;;;14.43;;
20557;SDS011;10437;48.156;11.530;2024-03-06T02:34:50;33.10;;;14.90;;
20557;SDS011;10437;48.156;11.530;2024-03-06T02:37:18;31.33;;;15.23;;
20557;SDS011;10437;48.156;11.530;2024-03-06T02:39:46;30.17;;;15.10;;
20557;SDS011;10437;48.156;11.530;2024-03-06T02:42:14;29.73;;;14.83;;
20557;SDS011;10437;48.156;11.530;2024-03-06T02:44:42;34.40;;;16.30;;
20557;SDS011;10437;48.156;11.530;2024-03-06T02:47:09;36.10;;;15.73;;
20557;SDS011;10437;48.156;11.530;2024-03-06T02:49:36;32.83;;;15.77;;
20557;SDS011;10437;48.156;11.530;2024-03-06T02:52:03;29.63;;;13.97;;
20557;SDS011;10437;48.156;11.530;2024-03-06T02:54:31;31.93;;;15.00;;
20557;SDS011;10437;48.156;11.530;2024-03-06T02:56:59;30.37;;;14.70;;
20557;SDS011;10437;48.156;11.530;2024-03-06T02:59:26;34.37;;;15.37;;
20557;SDS011;10437;48.156;11.530;2024-03-06T03:01:53;30.17;;;14.60;;
20557;SDS011;10437;48.156;11.530;2024-03-06T03:04:21;31.40;;;15.20;;
20557;SDS011;10437;48.156;11.530;2024-03-06T03:06:48;31.93;;;14.60;;
20557;SDS011;10437;48.156;11.530;2024-03-06T03:09:16;33.50;;;14.57;;
20557;SDS011;10437;48.156;11.530;2024-03-06T03:11:43;26.60;;;12.73;;
20557;SDS011;10437;48.156;11.530;2024-03-06T03:14:11;29.20;;;14.23;;
20557;SDS011;10437;48.156;11.530;2024-03-06T03:16:39;30.93;;;13.77;;
20557;SDS011;10437;48.156;11.530;2024-03-06T03:19:07;29.30;;;13.70;;
20557;SDS011;10437;48.156;11.530;2024-03-06T03:21:34;28.90;;;13.63;;
20557;SDS011;10437;48.156;11.530;2024-03-06T03:24:01;31.83;;;13.83;;
20557;SDS011;10437;48.156;11.530;2024-03-06T03:26:29;30.03;;;13.67;;
20557;SDS011;10437;48.156;11.530;2024-03-06T03:28:56;29.83;;;13.73;;
20557;SDS011;10437;48.156;11.530;2024-03-06T03:31:25;27.40;;;13.97;;
20557;SDS011;10437;48.156;11.530;2024-03-06T03:33:52;29.43;;;13.07;;
20557;SDS011;10437;48.156;11.530;2024-03-06T03:36:19;28.07;;;13.50;;
20557;SDS011;10437;48.156;11.530;2024-03-06T03:38:47;31.30;;;13.77;;
20557;SDS011;10437;48.156;11.530;2024-03-06T03:41:14;22.33;;;10.13;;
20557;SDS011;10437;48.156;11.530;2024-03-06T03:43:41;16.30;;;8.10;;
20557;SDS011;10437;48.156;11.530;2024-03-06T03:46:09;12.87;;;7.10;;
20557;SDS011;10437;48.156;11.530;2024-03-06T03:48:37;9.17;;;5.07;;
20557;SDS011;10437;48.156;11.530;2024-03-06T03:51:05;9.53;;;4.67;;
20557;SDS011;10437;48.156;11.530;2024-03-06T03:53:32;11.00;;;5.77;;
20557;SDS011;10437;48.156;11.530;2024-03-06T03:55:59;9.67;;;4.97;;
20557;SDS011;10437;48.156;11.530;2024-03-06T03:58:26;10.77;;;5.50;;
20557;SDS011;10437;48.156;11.530;2024-03-06T04:00:54;10.40;;;5.40;;
20557;SDS011;10437;48.156;11.530;2024-03-06T04:03:21;11.43;;;5.93;;
20557;SDS011;10437;48.156;11.530;2024-03-06T04:05:50;13.57;;;6.53;;
20557;SDS011;10437;48.156;11.530;2024-03-06T04:08:17;14.40;;;7.03;;
20557;SDS011;10437;48.156;11.530;2024-03-06T04:10:44;9.53;;;5.03;;
20557;SDS011;10437;48.156;11.530;2024-03-06T04:13:12;8.37;;;4.30;;
20557;SDS011;10437;48.156;11.530;2024-03-06T04:15:39;5.93;;;3.33;;
20557;SDS011;10437;48.156;11.530;2024-03-06T04:18:06;7.10;;;3.97;;
20557;SDS011;10437;48.156;11.530;2024-03-06T04:20:33;10.50;;;5.30;;
20557;SDS011;10437;48.156;11.530;2024-03-06T04:23:02;10.93;;;5.30;;
20557;SDS011;10437;48.156;11.530;2024-03-06T04:25:29;19.97;;;8.20;;
20557;SDS011;10437;48.156;11.530;2024-03-06T04:27:56;20.03;;;9.63;;
20557;SDS011;10437;48.156;11.530;2024-03-06T04:30:24;27.40;;;11.47;;
20557;SDS011;10437;48.156;11.530;2024-03-06T04:32:51;27.97;;;11.97;;
20557;SDS011;10437;48.156;11.530;2024-03-06T04:35:18;9.90;;;5.43;;
20557;SDS011;10437;48.156;11.530;2024-03-06T04:37:45;11.70;;;5.23;;
20557;SDS011;10437;48.156;11.530;2024-03-06T04:40:14;10.70;;;4.97;;
20557;SDS011;10437;48.156;11.530;2024-03-06T04:42:45;10.17;;;5.03;;
20557;SDS011;10437;48.156;11.530;2024-03-06T04:45:14;8.30;;;4.70;;
20557;SDS011;10437;48.156;11.530;2024-03-06T04:47:42;8.83;;;4.63;;
20557;SDS011;10437;48.156;11.530;2024-03-06T04:50:09;7.57;;;4.20;;
20557;SDS011;10437;48.156;11.530;2024-03-06T04:52:37;7.70;;;4.07;;
20557;SDS011;10437;48.156;11.530;2024-03-06T04:55:04;7.53;;;3.80;;
20557;SDS011;10437;48.156;11.530;2024-03-06T04:57:34;7.47;;;3.60;;
20557;SDS011;10437;48.156;11.530;2024-03-06T05:00:01;8.47;;;4.17;;
20557;SDS011;10437;48.156;11.530;2024-03-06T05:02:30;6.37;;;3.80;;
20557;SDS011;10437;48.156;11.530;2024-03-06T05:04:59;7.03;;;3.77;;
20557;SDS011;10437;48.156;11.530;2024-03-06T05:07:27;6.70;;;3.73;;
20557;SDS011;10437;48.156;11.530;2024-03-06T05:09:55;6.50;;;3.50;;
20557;SDS011;10437;48.156;11.530;2024-03-06T05:12:23;6.83;;;3.77;;
20557;SDS011;10437;48.156;11.530;2024-03-06T05:14:52;7.40;;;4.13;;
20557;SDS011;10437;48.156;11.530;2024-03-06T05:17:19;7.10;;;4.00;;
20557;SDS011;10437;48.156;11.530;2024-03-06T05:19:47;6.97;;;3.90;;
20557;SDS011;10437;48.156;11.530;2024-03-06T05:22:15;5.50;;;3.30;;
20557;SDS011;10437;48.156;11.530;2024-03-06T05:24:42;6.30;;;3.57;;
20557;SDS011;10437;48.156;11.530;2024-03-06T05:27:10;5.50;;;3.07;;
20557;SDS011;10437;48.156;11.530;2024-03-06T05:29:38;5.70;;;3.00;;
20557;SDS011;10437;48.156;11.530;2024-03-06T05:32:07;6.47;;;3.50;;
20557;SDS011;10437;48.156;11.530;2024-03-06T05:34:34;5.70;;;3.20;;
20557;SDS011;10437;48.156;11.530;2024-03-06T05:37:01;6.33;;;3.20;;
20557;SDS011;10437;48.156;11.530;2024-03-06T05:39:30;6.00;;;3.70;;
20557;SDS011;10437;48.156;11.530;2024-03-06T05:41:59;6.93;;;3.67;;
20557;SDS011;10437;48.156;11.530;2024-03-06T05:44:28;6.90;;;4.00;;
20557;SDS011;10437;48.156;11.530;2024-03-06T05:46:55;7.50;;;4.13;;
20557;SDS011;10437;48.156;11.530;2024-03-06T05:49:24;9.43;;;4.13;;
20557;SDS011;10437;48.156;11.530;2024-03-06T05:51:51;7.07;;;3.93;;
20557;SDS011;10437;48.156;11.530;2024-03-06T05:54:19;6.60;;;3.73;;
20557;SDS011;10437;48.156;11.530;2024-03-06T05:56:47;6.53;;;3.93;;
20557;SDS011;10437;48.156;11.530;2024-03-06T05:59:14;6.40;;;3.70;;
20557;SDS011;10437;48.156;11.530;2024-03-06T06:01:42;7.40;;;3.70;;
20557;SDS011;10437;48.156;11.530;2024-03-06T06:04:09;6.40;;;3.77;;
20557;SDS011;10437;48.156;11.530;2024-03-06T06:06:38;7.20;;;3.97;;
20557;SDS011;10437;48.156;11.530;2024-03-06T06:09:05;6.20;;;3.40;;
20557;SDS011;10437;48.156;11.530;2024-03-06T06:11:37;7.97;;;3.77;;
20557;SDS011;10437;48.156;11.530;2024-03-06T06:14:05;5.97;;;3.13;;
20557;SDS011;10437;48.156;11.530;2024-03-06T06:16:36;5.10;;;3.00;;
20557;SDS011;10437;48.156;11.530;2024-03-06T06:19:03;5.30;;;3.70;;
20557;SDS011;10437;48.156;11.530;2024-03-06T06:21:31;5.93;;;3.30;;
20557;SDS011;10437;48.156;11.530;2024-03-06T06:24:02;6.13;;;3.50;;
20557;SDS011;10437;48.156;11.530;2024-03-06T06:26:30;7.43;;;3.63;;
20557;SDS011;10437;48.156;11.530;2024-03-06T06:28:57;6.47;;;3.37;;
20557;SDS011;10437;48.156;11.530;2024-03-06T06:31:24;9.37;;;4.20;;
20557;SDS011;10437;48.156;11.530;2024-03-06T06:33:52;7.43;;;4.13;;
20557;SDS011;10437;48.156;11.530;2024-03-06T06:36:19;7.57;;;4.27;;
20557;SDS011;10437;48.156;11.530;2024-03-06T06:38:47;6.47;;;4.23;;
20557;SDS011;10437;48.156;11.530;2024-03-06T06:41:15;7.20;;;3.93;;
20557;SDS011;10437;48.156;11.530;2024-03-06T06:43:44;6.73;;;4.07;;
20557;SDS011;10437;48.156;11.530;2024-03-06T06:46:11;8.23;;;4.43;;
20557;SDS011;10437;48.156;11.530;2024-03-06T06:48:39;6.70;;;3.97;;
20557;SDS011;10437;48.156;11.530;2024-03-06T06:51:06;8.13;;;4.00;;
20557;SDS011;10437;48.156;11.530;2024-03-06T06:53:33;6.27;;;3.70;;
20557;SDS011;10437;48.156;11.530;2024-03-06T06:56:00;6.33;;;3.50;;
20557;SDS011;10437;48.156;11.530;2024-03-06T06:58:30;5.80;;;3.83;;
20557;SDS011;10437;48.156;11.530;2024-03-06T07:00:57;7.50;;;3.73;;
20557;SDS011;10437;48.156;11.530;2024-03-06T07:03:25;9.00;;;3.93;;
20557;SDS011;10437;48.156;11.530;2024-03-06T07:05:55;8.43;;;3.80;;
20557;SDS011;10437;48.156;11.530;2024-03-06T07:08:22;6.70;;;4.00;;
20557;SDS011;10437;48.156;11.530;2024-03-06T07:10:50;7.13;;;4.17;;
20557;SDS011;10437;48.156;11.530;2024-03-06T07:13:19;7.00;;;3.50;;
20557;SDS011;10437;48.156;11.530;2024-03-06T07:15:47;8.63;;;3.53;;
20557;SDS011;10437;48.156;11.530;2024-03-06T07:18:14;8.37;;;4.40;;
20557;SDS011;10437;48.156;11.530;2024-03-06T07:20:41;6.87;;;3.80;;
20557;SDS011;10437;48.156;11.530;2024-03-06T07:23:09;7.40;;;4.63;;
20557;SDS011;10437;48.156;11.530;2024-03-06T07:25:36;8.17;;;4.07;;
20557;SDS011;10437;48.156;11.530;2024-03-06T07:28:03;7.43;;;4.20;;
20557;SDS011;10437;48.156;11.530;2024-03-06T07:30:30;6.77;;;4.00;;
20557;SDS011;10437;48.156;11.530;2024-03-06T07:32:59;7.73;;;4.40;;
20557;SDS011;10437;48.156;11.530;2024-03-06T07:35:27;7.93;;;4.30;;
20557;SDS011;10437;48.156;11.530;2024-03-06T07:37:54;6.20;;;3.90;;
20557;SDS011;10437;48.156;11.530;2024-03-06T07:40:21;6.60;;;3.67;;
20557;SDS011;10437;48.156;11.530;2024-03-06T07:42:49;6.07;;;3.67;;
20557;SDS011;10437;48.156;11.530;2024-03-06T07:45:16;6.77;;;3.57;;
20557;SDS011;10437;48.156;11.530;2024-03-06T07:47:44;5.97;;;3.40;;
20557;SDS011;10437;48.156;11.530;2024-03-06T07:50:12;6.37;;;3.00;;
20557;SDS011;10437;48.156;11.530;2024-03-06T07:52:43;6.73;;;3.57;;
20557;SDS011;10437;48.156;11.530;2024-03-06T07:55:11;7.43;;;3.50;;
20557;SDS011;10437;48.156;11.530;2024-03-06T07:57:38;5.23;;;3.17;;
20557;SDS011;10437;48.156;11.530;2024-03-06T08:00:06;6.47;;;3.47;;
20557;SDS011;10437;48.156;11.530;2024-03-06T08:02:39;7.63;;;3.77;;
20557;SDS011;10437;48.156;11.530;2024-03-06T08:05:09;6.37;;;3.33;;
20557;SDS011;10437;48.156;11.530;2024-03-06T08:07:38;5.00;;;2.83;;
20557;SDS011;10437;48.156;11.530;2024-03-06T08:10:07;6.17;;;3.47;;
20557;SDS011;10437;48.156;11.530;2024-03-06T08:12:38;6.03;;;3.57;;
20557;SDS011;10437;48.156;11.530;2024-03-06T08:15:05;6.27;;;3.60;;
20557;SDS011;10437;48.156;11.530;2024-03-06T08:17:35;5.50;;;3.40;;
20557;SDS011;10437;48.156;11.530;2024-03-06T08:20:02;5.47;;;3.10;;
20557;SDS011;10437;48.156;11.530;2024-03-06T08:22:32;5.90;;;3.40;;
20557;SDS011;10437;48.156;11.530;2024-03-06T08:25:05;7.80;;;3.63;;
20557;SDS011;10437;48.156;11.530;2024-03-06T08:27:33;4.93;;;3.23;;
20557;SDS011;10437;48.156;11.530;2024-03-06T08:30:01;6.53;;;3.17;;
20557;SDS011;10437;48.156;11.530;2024-03-06T08:32:29;6.20;;;3.27;;
20557;SDS011;10437;48.156;11.530;2024-03-06T08:34:58;6.73;;;4.03;;
20557;SDS011;10437;48.156;11.530;2024-03-06T08:37:25;6.47;;;3.83;;
20557;SDS011;10437;48.156;11.530;2024-03-06T08:39:52;8.43;;;4.10;;
20557;SDS011;10437;48.156;11.530;2024-03-06T08:42:21;6.87;;;3.87;;
20557;SDS011;10437;48.156;11.530;2024-03-06T08:44:48;7.43;;;3.60;;
20557;SDS011;10437;48.156;11.530;2024-03-06T08:47:15;6.40;;;3.40;;
20557;SDS011;10437;48.156;11.530;2024-03-06T08:49:43;7.80;;;3.87;;
20557;SDS011;10437;48.156;11.530;2024-03-06T08:52:10;6.90;;;3.80;;
20557;SDS011;10437;48.156;11.530;2024-03-06T08:54:37;7.80;;;4.20;;
20557;SDS011;10437;48.156;11.530;2024-03-06T08:57:06;7.43;;;4.37;;
20557;SDS011;10437;48.156;11.530;2024-03-06T08:59:35;6.53;;;3.87;;
20557;SDS011;10437;48.156;11.530;2024-03-06T09:02:11;6.20;;;3.63;;
20557;SDS011;10437;48.156;11.530;2024-03-06T09:04:39;5.87;;;3.60;;
20557;SDS011;10437;48.156;11.530;2024-03-06T09:07:07;7.33;;;3.83;;
20557;SDS011;10437;48.156;11.530;2024-03-06T09:09:34;5.53;;;3.40;;
20557;SDS011;10437;48.156;11.530;2024-03-06T09:12:02;5.13;;;3.43;;
20557;SDS011;10437;48.156;11.530;2024-03-06T09:14:30;4.67;;;3.23;;
20557;SDS011;10437;48.156;11.530;2024-03-06T09:16:59;5.13;;;3.43;;
20557;SDS011;10437;48.156;11.530;2024-03-06T09:19:26;5.37;;;3.20;;
20557;SDS011;10437;48.156;11.530;2024-03-06T09:21:54;3.93;;;2.60;;
20557;SDS011;10437;48.156;11.530;2024-03-06T09:24:21;5.67;;;3.20;;
20557;SDS011;10437;48.156;11.530;2024-03-06T09:26:50;4.40;;;2.87;;
20557;SDS011;10437;48.156;11.530;2024-03-06T09:29:17;4.20;;;3.00;;
20557;SDS011;10437;48.156;11.530;2024-03-06T09:31:45;3.50;;;2.50;;
20557;SDS011;10437;48.156;11.530;2024-03-06T09:34:14;5.00;;;2.87;;
20557;SDS011;10437;48.156;11.530;2024-03-06T09:36:44;4.67;;;2.90;;
20557;SDS011;10437;48.156;11.530;2024-03-06T09:39:12;5.03;;;2.60;;
20557;SDS011;10437;48.156;11.530;2024-03-06T09:41:41;5.60;;;3.13;;
20557;SDS011;10437;48.156;11.530;2024-03-06T09:44:09;4.00;;;2.67;;
20557;SDS011;10437;48.156;11.530;2024-03-06T09:46:37;4.33;;;2.67;;
20557;SDS011;10437;48.156;11.530;2024-03-06T09:49:04;4.33;;;2.70;;
20557;SDS011;10437;48.156;11.530;2024-03-06T09:51:34;5.30;;;2.90;;
20557;SDS011;10437;48.156;11.530;2024-03-06T09:54:01;3.83;;;2.33;;
20557;SDS011;10437;48.156;11.530;2024-03-06T09:56:29;4.53;;;2.33;;
20557;SDS011;10437;48.156;11.530;2024-03-06T09:58:57;5.30;;;2.63;;
20557;SDS011;10437;48.156;11.530;2024-03-06T10:01:24;4.33;;;2.60;;
20557;SDS011;10437;48.156;11.530;2024-03-06T10:03:53;4.70;;;2.50;;
20557;SDS011;10437;48.156;11.530;2024-03-06T10:06:20;3.67;;;2.50;;
20557;SDS011;10437;48.156;11.530;2024-03-06T10:08:50;4.33;;;2.70;;
20557;SDS011;10437;48.156;11.530;2024-03-06T10:11:17;6.33;;;2.90;;
20557;SDS011;10437;48.156;11.530;2024-03-06T10:13:44;4.80;;;2.60;;
20557;SDS011;10437;48.156;11.530;2024-03-06T10:16:12;5.90;;;3.00;;
20557;SDS011;10437;48.156;11.530;2024-03-06T10:18:39;4.30;;;2.73;;
20557;SDS011;10437;48.156;11.530;2024-03-06T10:21:07;4.87;;;3.10;;
20557;SDS011;10437;48.156;11.530;2024-03-06T10:23:35;5.07;;;2.80;;
20557;SDS011;10437;48.156;11.530;2024-03-06T10:26:04;5.33;;;3.07;;
20557;SDS011;10437;48.156;11.530;2024-03-06T10:28:34;5.47;;;3.20;;
20557;SDS011;10437;48.156;11.530;2024-03-06T10:31:04;4.40;;;2.80;;
20557;SDS011;10437;48.156;11.530;2024-03-06T10:33:33;5.50;;;3.00;;
20557;SDS011;10437;48.156;11.530;2024-03-06T10:36:00;4.67;;;2.87;;
20557;SDS011;10437;48.156;11.530;2024-03-06T10:38:28;6.43;;;3.50;;
20557;SDS011;10437;48.156;11.530;2024-03-06T10:40:57;6.23;;;3.57;;
20557;SDS011;10437;48.156;11.530;2024-03-06T10:43:26;6.27;;;3.73;;
20557;SDS011;10437;48.156;11.530;2024-03-06T10:45:57;9.13;;;4.50;;
20557;SDS011;10437;48.156;11.530;2024-03-06T10:48:26;6.87;;;4.00;;
20557;SDS011;10437;48.156;11.530;2024-03-06T10:50:55;8.97;;;4.70;;
20557;SDS011;10437;48.156;11.530;2024-03-06T10:53:24;8.57;;;4.37;;
20557;SDS011;10437;48.156;11.530;2024-03-06T10:55:52;9.77;;;5.10;;
20557;SDS011;10437;48.156;11.530;2024-03-06T10:58:20;10.23;;;3.90;;
20557;SDS011;10437;48.156;11.530;2024-03-06T11:00:49;7.60;;;3.63;;
20557;SDS011;10437;48.156;11.530;2024-03-06T11:03:18;7.03;;;4.13;;
20557;SDS011;10437;48.156;11.530;2024-03-06T11:05:45;8.80;;;3.83;;
20557;SDS011;10437;48.156;11.530;2024-03-06T11:08:15;6.27;;;3.80;;
20557;SDS011;10437;48.156;11.530;2024-03-06T11:10:43;7.20;;;3.73;;
20557;SDS011;10437;48.156;11.530;2024-03-06T11:13:20;7.03;;;3.40;;
20557;SDS011;10437;48.156;11.530;2024-03-06T11:15:50;6.23;;;3.30;;
20557;SDS011;10437;48.156;11.530;2024-03-06T11:21:27;7.13;;;3.47;;
20557;SDS011;10437;48.156;11.530;2024-03-06T11:26:37;5.53;;;3.30;;
20557;SDS011;10437;48.156;11.530;2024-03-06T11:29:04;9.23;;;4.23;;
20557;SDS011;10437;48.156;11.530;2024-03-06T11:31:35;9.20;;;4.30;;
20557;SDS011;10437;48.156;11.530;2024-03-06T11:34:04;8.10;;;4.00;;
20557;SDS011;10437;48.156;11.530;2024-03-06T11:36:31;9.33;;;4.00;;
20557;SDS011;10437;48.156;11.530;2024-03-06T11:38:58;8.17;;;4.20;;
20557;SDS011;10437;48.156;11.530;2024-03-06T11:41:27;9.57;;;4.53;;
20557;SDS011;10437;48.156;11.530;2024-03-06T11:43:55;10.30;;;4.47;;
20557;SDS011;10437;48.156;11.530;2024-03-06T11:46:23;12.60;;;6.17;;
20557;SDS011;10437;48.156;11.530;2024-03-06T11:48:55;13.73;;;6.13;;
20557;SDS011;10437;48.156;11.530;2024-03-06T11:51:23;12.90;;;6.20;;
20557;SDS011;10437;48.156;11.530;2024-03-06T11:53:51;13.60;;;6.33;;
20557;SDS011;10437;48.156;11.530;2024-03-06T11:56:20;13.03;;;6.40;;
20557;SDS011;10437;48.156;11.530;2024-03-06T11:58:47;10.53;;;6.03;;
20557;SDS011;10437;48.156;11.530;2024-03-06T12:01:14;14.73;;;7.20;;
20557;SDS011;10437;48.156;11.530;2024-03-06T12:03:43;15.47;;;6.60;;
20557;SDS011;10437;48.156;11.530;2024-03-06T12:06:12;14.50;;;6.90;;
20557;SDS011;10437;48.156;11.530;2024-03-06T12:08:39;15.60;;;7.17;;
20557;SDS011;10437;48.156;11.530;2024-03-06T12:11:07;18.33;;;7.87;;
20557;SDS011;10437;48.156;11.530;2024-03-06T12:13:34;19.10;;;7.63;;
20557;SDS011;10437;48.156;11.530;2024-03-06T12:16:05;18.30;;;8.73;;
20557;SDS011;10437;48.156;11.530;2024-03-06T12:18:32;18.40;;;8.40;;
20557;SDS011;10437;48.156;11.530;2024-03-06T12:21:00;16.70;;;7.90;;
20557;SDS011;10437;48.156;11.530;2024-03-06T12:23:30;16.17;;;7.80;;
20557;SDS011;10437;48.156;11.530;2024-03-06T12:26:04;18.80;;;7.77;;
20557;SDS011;10437;48.156;11.530;2024-03-06T12:28:31;16.07;;;8.30;;
20557;SDS011;10437;48.156;11.530;2024-03-06T12:31:01;16.47;;;7.47;;
20557;SDS011;10437;48.156;11.530;2024-03-06T12:33:28;19.90;;;8.27;;
20557;SDS011;10437;48.156;11.530;2024-03-06T12:36:00;17.23;;;7.50;;
20557;SDS011;10437;48.156;11.530;2024-03-06T12:38:33;13.33;;;6.40;;
20557;SDS011;10437;48.156;11.530;2024-03-06T12:41:00;14.87;;;7.13;;
20557;SDS011;10437;48.156;11.530;2024-03-06T12:43:27;16.17;;;7.70;;
20557;SDS011;10437;48.156;11.530;2024-03-06T12:45:54;14.07;;;7.43;;
20557;SDS011;10437;48.156;11.530;2024-03-06T12:48:22;17.83;;;8.10;;
20557;SDS011;10437;48.156;11.530;2024-03-06T12:50:50;15.97;;;7.40;;
20557;SDS011;10437;48.156;11.530;2024-03-06T12:53:19;13.80;;;6.43;;
20557;SDS011;10437;48.156;11.530;2024-03-06T12:55:48;13.87;;;7.13;;
20557;SDS011;10437;48.156;11.530;2024-03-06T12:58:15;11.27;;;6.23;;
20557;SDS011;10437;48.156;11.530;2024-03-06T13:00:42;16.50;;;7.00;;
20557;SDS011;10437;48.156;11.530;2024-03-06T13:03:09;12.73;;;6.17;;
20557;SDS011;10437;48.156;11.530;2024-03-06T13:05:37;13.57;;;6.47;;
20557;SDS011;10437;48.156;11.530;2024-03-06T13:08:04;13.87;;;6.23;;
20557;SDS011;10437;48.156;11.530;2024-03-06T13:10:32;13.13;;;6.60;;
20557;SDS011;10437;48.156;11.530;2024-03-06T13:13:02;16.10;;;6.87;;
20557;SDS011;10437;48.156;11.530;2024-03-06T13:15:29;17.47;;;6.80;;
20557;SDS011;10437;48.156;11.530;2024-03-06T13:17:56;12.43;;;6.13;;
20557;SDS011;10437;48.156;11.530;2024-03-06T13:20:23;13.70;;;6.50;;
20557;SDS011;10437;48.156;11.530;2024-03-06T13:22:51;12.00;;;6.30;;
20557;SDS011;10437;48.156;11.530;2024-03-06T13:25:18;9.97;;;5.57;;
20557;SDS011;10437;48.156;11.530;2024-03-06T13:27:45;13.07;;;6.63;;
20557;SDS011;10437;48.156;11.530;2024-03-06T13:30:14;14.07;;;7.47;;
20557;SDS011;10437;48.156;11.530;2024-03-06T13:32:41;13.23;;;6.37;;
20557;SDS011;10437;48.156;11.530;2024-03-06T13:35:10;14.90;;;6.83;;
20557;SDS011;10437;48.156;11.530;2024-03-06T13:37:38;12.03;;;6.10;;
20557;SDS011;10437;48.156;11.530;2024-03-06T13:40:06;9.90;;;5.33;;
20557;SDS011;10437;48.156;11.530;2024-03-06T13:42:34;10.47;;;5.30;;
20557;SDS011;10437;48.156;11.530;2024-03-06T13:45:01;10.53;;;5.07;;
20557;SDS011;10437;48.156;11.530;2024-03-06T13:47:30;10.00;;;5.37;;
20557;SDS011;10437;48.156;11.530;2024-03-06T13:49:57;10.37;;;5.13;;
20557;SDS011;10437;48.156;11.530;2024-03-06T13:52:24;8.87;;;4.90;;
20557;SDS011;10437;48.156;11.530;2024-03-06T13:54:51;8.60;;;4.40;;
20557;SDS011;10437;48.156;11.530;2024-03-06T13:57:18;10.93;;;5.33;;
20557;SDS011;10437;48.156;11.530;2024-03-06T13:59:45;11.53;;;5.33;;
20557;SDS011;10437;48.156;11.530;2024-03-06T14:02:12;8.83;;;4.70;;
20557;SDS011;10437;48.156;11.530;2024-03-06T14:04:40;8.13;;;4.30;;
20557;SDS011;10437;48.156;11.530;2024-03-06T14:07:08;7.13;;;4.10;;
20557;SDS011;10437;48.156;11.530;2024-03-06T14:09:35;8.40;;;4.33;;
20557;SDS011;10437;48.156;11.530;2024-03-06T14:12:02;8.00;;;4.67;;
20557;SDS011;10437;48.156;11.530;2024-03-06T14:14:29;7.77;;;4.00;;
20557;SDS011;10437;48.156;11.530;2024-03-06T14:16:57;10.80;;;5.07;;
20557;SDS011;10437;48.156;11.530;2024-03-06T14:19:24;8.67;;;4.53;;
20557;SDS011;10437;48.156;11.530;2024-03-06T14:21:53;7.57;;;3.93;;
20557;SDS011;10437;48.156;11.530;2024-03-06T14:24:20;8.60;;;4.20;;
20557;SDS011;10437;48.156;11.530;2024-03-06T14:26:47;6.83;;;4.00;;
20557;SDS011;10437;48.156;11.530;2024-03-06T14:29:15;8.93;;;4.93;;
20557;SDS011;10437;48.156;11.530;2024-03-06T14:31:42;8.43;;;4.10;;
20557;SDS011;10437;48.156;11.530;2024-03-06T14:34:09;8.37;;;4.20;;
20557;SDS011;10437;48.156;11.530;2024-03-06T14:36:36;7.93;;;4.13;;